M I D A S
Marine Information and Data Acquisition System
Tripno 1739 of the Zeeleeuw from 2009-07-27 06:58:48 to 2009-07-27 13:02:44
Back to CruiseResearch ActivitiesStationsMapUnderway DataData graphs

EquipmentUnitsComment
TimeDGPSUTC
LatitudeDGPSDM.mWGS84
LongitudeDGPSDM.mWGS84
HeadingGyrodeg 
SOGDGPSknotsSpeed over ground
COGDGPSdegCourse over ground
DepthEcho soundermeters200 kHz
Missing or incorrect values are displayed as -999
Navigation data collected by the RV Zeeleeuw from 2009-07-27 06:45:13 to 2009-07-27 13:10:34
Time Latitude Longitude Heading SOG COG Depth
2009-07-27 06:46:17 51°13.663 2°55.958 126.7 -999 56 5.2
2009-07-27 06:47:17 51°13.664 2°55.959 126.6 -999 117 6.8
2009-07-27 06:48:16 51°13.664 2°55.96 127 -999 322 -999
2009-07-27 06:49:15 51°13.664 2°55.96 127.1 -999 347 6.8
2009-07-27 06:50:14 51°13.664 2°55.96 127.1 -999 149 6.8
2009-07-27 06:51:15 51°13.664 2°55.96 128.2 -999 134 6.7
2009-07-27 06:52:15 51°13.662 2°55.962 128.2 -999 59 6.7
2009-07-27 06:53:18 51°13.662 2°55.962 128.3 -999 77 -999
2009-07-27 06:54:17 51°13.663 2°55.962 128.4 -999 349 6.7
2009-07-27 06:55:18 51°13.663 2°55.96 128.7 -999 294 -999
2009-07-27 06:56:17 51°13.663 2°55.961 125.2 0.1 185 6.6
2009-07-27 06:57:15 51°13.662 2°55.961 116.4 0.1 190 6.7
2009-07-27 06:58:15 51°13.666 2°55.942 111.7 2.3 293 -999
2009-07-27 06:59:18 51°13.688 2°55.853 106 3.6 286 -999
2009-07-27 07:00:18 51°13.696 2°55.767 91.9 2.8 274 -999
2009-07-27 07:01:16 51°13.699 2°55.737 66.3 0.5 30 13.7
2009-07-27 07:02:15 51°13.701 2°55.74 26.9 0.8 210 13.4
2009-07-27 07:03:15 51°13.706 2°55.732 351.4 2.3 345 13.2
2009-07-27 07:04:15 51°13.789 2°55.667 334.6 7.4 333 12.4
2009-07-27 07:05:15 51°13.911 2°55.574 336.6 8.4 335 12
2009-07-27 07:06:15 51°14.04 2°55.479 337.3 8.5 335 12
2009-07-27 07:07:15 51°14.166 2°55.375 330.2 8.6 327 11.9
2009-07-27 07:08:15 51°14.273 2°55.221 313.2 8.8 312 11.9
2009-07-27 07:09:15 51°14.365 2°55.039 310 9 309 11.1
2009-07-27 07:10:15 51°14.49 2°54.878 329.1 10.6 326 11.1
2009-07-27 07:11:15 51°14.646 2°54.72 332.3 11.6 329 10.6
2009-07-27 07:12:15 51°14.815 2°54.56 332.6 11.8 329 10.4
2009-07-27 07:13:15 51°14.985 2°54.406 333.2 11.8 331 11.1
2009-07-27 07:14:15 51°15.158 2°54.255 333 11.8 331 11.3
2009-07-27 07:15:15 51°15.329 2°54.102 333.9 11.8 331 11.7
2009-07-27 07:16:15 51°15.503 2°53.955 335.4 11.8 332 10.9
2009-07-27 07:17:15 51°15.675 2°53.803 334.4 11.8 331 11.6
2009-07-27 07:18:15 51°15.849 2°53.652 334.1 11.9 331 11.9
2009-07-27 07:19:14 51°16.019 2°53.502 333.7 11.9 331 12.1
2009-07-27 07:20:14 51°16.194 2°53.351 333.4 11.9 331 12.4
2009-07-27 07:21:15 51°16.367 2°53.191 331.2 11.9 330 12.6
2009-07-27 07:22:15 51°16.538 2°53.033 332.2 11.9 330 12.3
2009-07-27 07:23:14 51°16.709 2°52.885 334 11.9 332 11.4
2009-07-27 07:24:14 51°16.882 2°52.734 333 11.9 331 10
2009-07-27 07:25:15 51°17.066 2°52.605 339.8 11.9 338 10.1
2009-07-27 07:26:14 51°17.247 2°52.487 340.5 12 338 10.7
2009-07-27 07:27:14 51°17.436 2°52.407 0.3 11.7 1 11
2009-07-27 07:28:15 51°17.63 2°52.47 20 11.8 18 11
2009-07-27 07:29:15 51°17.798 2°52.617 43.1 11.6 43 10.9
2009-07-27 07:30:15 51°17.92 2°52.854 58 11.6 54 10.7
2009-07-27 07:31:14 51°18.028 2°53.103 58.5 11.6 54 10.9
2009-07-27 07:32:15 51°18.14 2°53.36 58.4 11.6 56 10.9
2009-07-27 07:33:15 51°18.249 2°53.615 59.8 11.6 56 11.1
2009-07-27 07:34:15 51°18.357 2°53.87 59.7 11.5 56 11
2009-07-27 07:35:15 51°18.462 2°54.129 60.6 11.7 57 11.1
2009-07-27 07:36:14 51°18.564 2°54.385 61.7 11.6 58 11
2009-07-27 07:37:15 51°18.67 2°54.648 60.9 11.6 56 11.2
2009-07-27 07:38:14 51°18.775 2°54.897 60 11.5 56 11.2
2009-07-27 07:39:15 51°18.881 2°55.158 61.1 11.5 58 11.2
2009-07-27 07:40:15 51°18.986 2°55.414 60.8 11.5 56 11.2
2009-07-27 07:41:15 51°19.092 2°55.667 60.2 11.5 57 11.3
2009-07-27 07:42:14 51°19.199 2°55.914 59.6 11.4 55 11.3
2009-07-27 07:43:14 51°19.304 2°56.168 60.9 11.5 56 11.2
2009-07-27 07:44:15 51°19.411 2°56.424 59.6 11.4 55 11.3
2009-07-27 07:45:15 51°19.516 2°56.678 60.5 11.5 56 11.2
2009-07-27 07:46:15 51°19.62 2°56.932 61.1 11.5 57 11.2
2009-07-27 07:47:14 51°19.724 2°57.181 60.3 11.4 55 11.2
2009-07-27 07:48:15 51°19.822 2°57.444 66.1 11.3 61 11.3
2009-07-27 07:49:15 51°19.906 2°57.715 67.7 11.3 63 11.1
2009-07-27 07:50:15 51°19.989 2°57.986 67.6 11.3 64 11.2
2009-07-27 07:51:15 51°20.072 2°58.256 68.3 11.3 65 11
2009-07-27 07:52:15 51°20.154 2°58.526 68.4 11.3 65 11.1
2009-07-27 07:53:15 51°20.233 2°58.798 71.2 11.3 69 10.9
2009-07-27 07:54:15 51°20.294 2°59.08 76.7 11.2 73 10.6
2009-07-27 07:55:15 51°20.346 2°59.366 78.2 11.2 74 10.6
2009-07-27 07:56:15 51°20.395 2°59.652 77.9 11.3 74 10.5
2009-07-27 07:57:15 51°20.446 2°59.938 77 11.2 73 10.6
2009-07-27 07:58:14 51°20.5 3°0.216 76 11.1 73 10.7
2009-07-27 07:59:15 51°20.552 3°0.505 77.6 11.2 75 10.6
2009-07-27 08:00:15 51°20.599 3°0.792 77.5 11.1 75 10.5
2009-07-27 08:01:15 51°20.649 3°1.076 76.6 11.1 73 10.4
2009-07-27 08:02:15 51°20.7 3°1.36 76.2 11.1 74 10.2
2009-07-27 08:03:15 51°20.753 3°1.639 76.3 11 72 10.2
2009-07-27 08:04:15 51°20.813 3°1.912 74 10.8 69 10.2
2009-07-27 08:05:15 51°20.874 3°2.179 74.9 10.7 71 10.2
2009-07-27 08:06:15 51°20.913 3°2.453 84.9 10.5 80 10.1
2009-07-27 08:07:14 51°20.939 3°2.724 83.6 10.5 80 10
2009-07-27 08:08:15 51°20.971 3°3.003 81.6 10.5 78 10
2009-07-27 08:09:15 51°21.009 3°3.275 80.6 10.5 78 9.9
2009-07-27 08:10:15 51°21.043 3°3.546 80.4 10.4 77 9.8
2009-07-27 08:11:15 51°21.079 3°3.815 80.7 10.4 77 9.9
2009-07-27 08:12:15 51°21.114 3°4.086 81.1 10.4 79 10.1
2009-07-27 08:13:15 51°21.146 3°4.358 81.4 10.4 79 10
2009-07-27 08:14:15 51°21.177 3°4.629 81.4 10.4 80 9.9
2009-07-27 08:15:15 51°21.206 3°4.899 81.4 10.3 80 9.8
2009-07-27 08:16:15 51°21.211 3°5.172 90.8 10.3 91 9.7
2009-07-27 08:17:15 51°21.203 3°5.445 92.7 10.3 94 9.5
2009-07-27 08:18:15 51°21.195 3°5.717 90.5 10.2 90 9.2
2009-07-27 08:19:15 51°21.194 3°5.984 90.1 10.1 92 9.4
2009-07-27 08:20:15 51°21.189 3°6.236 90.7 8.2 94 9.2
2009-07-27 08:21:15 51°21.18 3°6.431 91.5 7 95 9.2
2009-07-27 08:22:15 51°21.175 3°6.613 88.7 6.8 91 9
2009-07-27 08:23:15 51°21.177 3°6.793 83.1 6.7 82 8.7
2009-07-27 08:24:15 51°21.198 3°6.97 78.3 6.8 79 8.7
2009-07-27 08:25:15 51°21.232 3°7.139 63.6 6.6 60 8.7
2009-07-27 08:26:15 51°21.301 3°7.282 55.8 6.8 49 9
2009-07-27 08:27:15 51°21.377 3°7.417 53.5 6.8 47 9.2
2009-07-27 08:28:15 51°21.428 3°7.511 73.2 3 78 9.5
2009-07-27 08:29:15 51°21.394 3°7.557 146.4 3.7 176 9.4
2009-07-27 08:30:15 51°21.324 3°7.505 208.2 5.4 221 9.2
2009-07-27 08:31:15 51°21.291 3°7.383 270.2 4.9 265 8.9
2009-07-27 08:32:15 51°21.317 3°7.28 339.9 3.7 315 9.1
2009-07-27 08:33:15 51°21.367 3°7.271 45.1 3.2 34 9.5
2009-07-27 08:34:15 51°21.401 3°7.348 58.9 3.9 51 9.2
2009-07-27 08:35:15 51°21.448 3°7.429 57.5 4.2 50 9.6
2009-07-27 08:36:15 51°21.494 3°7.508 51.9 3.9 38 9.7
2009-07-27 08:37:15 51°21.547 3°7.561 48.5 3.7 29 10
2009-07-27 08:38:15 51°21.602 3°7.605 48.3 3.7 25 10.1
2009-07-27 08:39:15 51°21.651 3°7.656 63.2 3.1 50 10.4
2009-07-27 08:40:15 51°21.676 3°7.727 70.5 3.1 66 10.3
2009-07-27 08:41:15 51°21.695 3°7.803 70.4 3.1 67 10.4
2009-07-27 08:42:15 51°21.715 3°7.879 70.5 3.1 69 10.5
2009-07-27 08:43:15 51°21.734 3°7.956 70.2 3.1 68 10.6
2009-07-27 08:44:15 51°21.753 3°8.032 69.7 3.1 68 10.6
2009-07-27 08:45:15 51°21.771 3°8.108 70.5 3 70 10.6
2009-07-27 08:46:15 51°21.773 3°8.186 89.2 3.1 103 10.7
2009-07-27 08:47:15 51°21.756 3°8.267 96.4 3.3 118 10.5
2009-07-27 08:48:15 51°21.711 3°8.335 121 4.1 150 10.5
2009-07-27 08:49:15 51°21.638 3°8.365 150.2 5 179 9.9
2009-07-27 08:50:15 51°21.553 3°8.332 179.9 5.5 203 9.4
2009-07-27 08:51:15 51°21.473 3°8.251 207.7 5.9 220 9.2
2009-07-27 08:52:15 51°21.414 3°8.14 230.6 5.1 236 9.1
2009-07-27 08:53:15 51°21.377 3°8.025 249.7 4.8 248 8.7
2009-07-27 08:54:15 51°21.355 3°7.906 265.5 4.6 258 8.5
2009-07-27 08:55:15 51°21.341 3°7.787 271.4 4.5 261 8.5
2009-07-27 08:56:15 51°21.326 3°7.668 262 4.6 256 8.7
2009-07-27 08:57:15 51°21.305 3°7.551 253.9 4.6 251 8.7
2009-07-27 08:58:15 51°21.282 3°7.433 253.8 4.6 253 8.5
2009-07-27 08:59:15 51°21.26 3°7.317 253.7 4.5 253 8.6
2009-07-27 09:00:15 51°21.239 3°7.205 253.7 4.3 254 8.4
2009-07-27 09:01:15 51°21.219 3°7.096 251.7 4.3 254 8.3
2009-07-27 09:02:15 51°21.199 3°6.989 250.2 4.2 253 8.4
2009-07-27 09:03:15 51°21.178 3°6.883 250 4.1 254 8.3
2009-07-27 09:04:15 51°21.158 3°6.777 250 4.1 253 8.2
2009-07-27 09:05:15 51°21.143 3°6.671 265.7 4 263 8.2
2009-07-27 09:06:15 51°21.138 3°6.57 281.9 3.7 268 8.3
2009-07-27 09:07:15 51°21.139 3°6.47 297.2 3.8 274 8.3
2009-07-27 09:08:15 51°21.151 3°6.37 322.2 3.8 285 8.6
2009-07-27 09:09:15 51°21.164 3°6.286 334.9 2.9 282 8.6
2009-07-27 09:10:15 51°21.171 3°6.215 338.1 2.6 276 8.7
2009-07-27 09:11:15 51°21.174 3°6.148 340.3 2.4 273 8.7
2009-07-27 09:12:15 51°21.177 3°6.082 334.6 2.8 281 8.8
2009-07-27 09:13:15 51°21.187 3°5.988 295.6 4.1 273 8.9
2009-07-27 09:14:15 51°21.177 3°5.859 258.6 6 257 8.7
2009-07-27 09:15:15 51°21.143 3°5.624 259 11.5 258 8.4
2009-07-27 09:16:15 51°21.09 3°5.293 255.4 13.3 255 8.3
2009-07-27 09:17:15 51°21.03 3°4.954 254.2 13.3 253 8.4
2009-07-27 09:18:15 51°20.969 3°4.615 255 13.3 254 8.4
2009-07-27 09:19:15 51°20.909 3°4.276 255 13.3 254 8.3
2009-07-27 09:20:15 51°20.844 3°3.939 252.9 13.2 252 8.4
2009-07-27 09:21:15 51°20.779 3°3.603 253.3 13.2 253 8.3
2009-07-27 09:22:15 51°20.717 3°3.266 254.9 13.2 254 8
2009-07-27 09:23:15 51°20.651 3°2.93 252.2 13.2 252 8
2009-07-27 09:24:15 51°20.587 3°2.595 255 13.2 255 7.9
2009-07-27 09:25:15 51°20.523 3°2.26 253.7 13.2 253 8.1
2009-07-27 09:26:15 51°20.458 3°1.926 254 13.1 253 8.1
2009-07-27 09:27:15 51°20.394 3°1.593 253.7 13.1 254 8.2
2009-07-27 09:28:15 51°20.331 3°1.26 254.3 13.1 254 8.3
2009-07-27 09:29:15 51°20.271 3°0.928 254.3 13 254 8.3
2009-07-27 09:30:15 51°20.213 3°0.597 255.8 12.9 255 8.5
2009-07-27 09:31:15 51°20.155 3°0.268 255.6 12.9 255 8.7
2009-07-27 09:32:14 51°20.099 2°59.943 255.3 12.9 255 8.8
2009-07-27 09:33:15 51°20.04 2°59.607 254.9 12.9 253 8.8
2009-07-27 09:34:14 51°19.979 2°59.284 254.3 12.9 254 8.7
2009-07-27 09:35:15 51°19.91 2°58.956 248.4 12.8 248 8.7
2009-07-27 09:36:14 51°19.825 2°58.65 245.1 12.7 245 8.8
2009-07-27 09:37:15 51°19.733 2°58.338 244.7 12.8 244 8.9
2009-07-27 09:38:14 51°19.649 2°58.032 247.1 12.7 246 9
2009-07-27 09:39:14 51°19.561 2°57.726 246.8 12.7 246 9
2009-07-27 09:40:14 51°19.472 2°57.422 244.5 12.6 244 9.1
2009-07-27 09:41:14 51°19.375 2°57.128 241.2 12.6 242 9.1
2009-07-27 09:42:15 51°19.268 2°56.836 238.6 12.5 238 9.2
2009-07-27 09:43:15 51°19.16 2°56.554 239.5 12.4 238 9.4
2009-07-27 09:44:15 51°19.052 2°56.272 239 12.4 240 9.3
2009-07-27 09:45:15 51°18.945 2°55.989 239.6 12.5 240 9.4
2009-07-27 09:46:15 51°18.836 2°55.707 239 12.5 238 9.3
2009-07-27 09:47:15 51°18.728 2°55.425 238.7 12.4 238 9.3
2009-07-27 09:48:15 51°18.605 2°55.16 231.6 12.4 231 9.3
2009-07-27 09:49:15 51°18.477 2°54.901 232.2 12.4 231 9.2
2009-07-27 09:50:15 51°18.348 2°54.646 230.3 12.4 230 9
2009-07-27 09:51:15 51°18.219 2°54.391 231.8 12.3 231 8.9
2009-07-27 09:52:15 51°18.106 2°54.12 239 12.2 239 8.8
2009-07-27 09:53:14 51°17.998 2°53.85 238.9 12.3 237 8.8
2009-07-27 09:54:14 51°17.889 2°53.575 239 12.3 238 8.7
2009-07-27 09:55:14 51°17.78 2°53.301 238.7 12.3 237 9
2009-07-27 09:56:14 51°17.674 2°53.021 240.9 12.3 238 8.7
2009-07-27 09:57:15 51°17.564 2°52.741 239.1 12.3 238 9.1
2009-07-27 09:58:15 51°17.425 2°52.523 207.2 11.9 206 9.1
2009-07-27 09:59:15 51°17.236 2°52.417 193.4 12.1 196 9.2
2009-07-27 10:00:15 51°17.04 2°52.388 174.3 11.9 176 8.7
2009-07-27 10:01:15 51°16.848 2°52.448 160.7 11.7 166 8.8
2009-07-27 10:02:15 51°16.661 2°52.539 159.8 11.7 163 9.6
2009-07-27 10:03:15 51°16.474 2°52.629 156.7 11.7 162 10.8
2009-07-27 10:04:15 51°16.289 2°52.724 158.3 11.7 165 10.9
2009-07-27 10:05:15 51°16.098 2°52.797 161.7 11.8 168 10.9
2009-07-27 10:06:15 51°15.908 2°52.87 159.8 11.7 166 10.7
2009-07-27 10:07:15 51°15.72 2°52.95 158.7 11.8 165 10.5
2009-07-27 10:08:15 51°15.532 2°53.028 159.5 11.6 165 9.9
2009-07-27 10:09:15 51°15.346 2°53.113 157.6 11.5 162 9
2009-07-27 10:10:15 51°15.165 2°53.216 153.2 11.6 159 9.1
2009-07-27 10:11:15 51°14.99 2°53.341 151 11.4 156 8.6
2009-07-27 10:12:15 51°14.813 2°53.459 154.5 11.5 159 9
2009-07-27 10:13:14 51°14.647 2°53.589 140.2 11 146 7.4
2009-07-27 10:14:15 51°14.487 2°53.756 146.7 11.5 154 8.9
2009-07-27 10:15:15 51°14.303 2°53.823 172.2 11 180 8.5
2009-07-27 10:16:15 51°14.158 2°53.704 234.2 9.9 234 8.2
2009-07-27 10:17:15 51°14.058 2°53.454 239.4 12 239 8.2
2009-07-27 10:18:15 51°13.952 2°53.177 240.3 12.3 239 8.5
2009-07-27 10:19:15 51°13.845 2°52.898 239.7 12.3 238 8.7
2009-07-27 10:20:15 51°13.738 2°52.618 239.6 12.4 239 8.9
2009-07-27 10:21:15 51°13.632 2°52.336 239.8 12.5 239 9.1
2009-07-27 10:22:15 51°13.527 2°52.053 239.9 12.4 240 9.1
2009-07-27 10:23:15 51°13.421 2°51.769 240.3 12.4 239 9.2
2009-07-27 10:24:15 51°13.317 2°51.483 240.3 12.5 241 9.2
2009-07-27 10:25:15 51°13.213 2°51.196 240.9 12.5 241 9.2
2009-07-27 10:26:15 51°13.115 2°50.904 243.8 12.5 243 9.4
2009-07-27 10:27:15 51°13.018 2°50.611 242.5 12.5 243 9.5
2009-07-27 10:28:15 51°12.918 2°50.321 242.1 12.5 242 9.6
2009-07-27 10:29:15 51°12.82 2°50.03 241.2 12.6 241 9.7
2009-07-27 10:30:14 51°12.719 2°49.746 239.4 12.5 239 9.8
2009-07-27 10:31:15 51°12.611 2°49.455 240.2 12.5 241 9.9
2009-07-27 10:32:15 51°12.512 2°49.164 242.4 12.5 241 9.8
2009-07-27 10:33:15 51°12.414 2°48.872 243.2 12.4 242 10
2009-07-27 10:34:15 51°12.319 2°48.581 243.2 12.4 243 10.1
2009-07-27 10:35:14 51°12.226 2°48.295 243.1 12.3 242 10.2
2009-07-27 10:36:15 51°12.129 2°48.001 243.4 12.3 242 10.3
2009-07-27 10:37:15 51°12.036 2°47.711 242.9 12.4 242 10.3
2009-07-27 10:38:15 51°11.941 2°47.421 243.2 12.3 242 10.3
2009-07-27 10:39:15 51°11.847 2°47.13 243.6 12.3 243 10.2
2009-07-27 10:40:14 51°11.753 2°46.845 243.1 12.3 243 10.2
2009-07-27 10:41:15 51°11.656 2°46.551 243.2 12.3 243 10.3
2009-07-27 10:42:15 51°11.562 2°46.261 243.1 12.3 243 10.1
2009-07-27 10:43:15 51°11.467 2°45.971 243.3 12.3 243 9.9
2009-07-27 10:44:15 51°11.374 2°45.681 243.2 12.3 242 9.7
2009-07-27 10:45:15 51°11.28 2°45.393 243.5 12.2 242 9.5
2009-07-27 10:46:15 51°11.187 2°45.107 243.1 12.2 242 9.3
2009-07-27 10:47:15 51°11.093 2°44.82 242.9 12.2 243 9.1
2009-07-27 10:48:15 51°11 2°44.534 243.5 12.2 243 9
2009-07-27 10:49:15 51°10.906 2°44.247 243.1 12.2 242 8.8
2009-07-27 10:50:14 51°10.818 2°43.983 243 10.1 241 8.6
2009-07-27 10:51:15 51°10.744 2°43.754 248.2 9.9 247 8.5
2009-07-27 10:52:15 51°10.702 2°43.464 264.6 12 262 8.5
2009-07-27 10:53:15 51°10.678 2°43.144 266.5 12.3 263 8.9
2009-07-27 10:54:15 51°10.654 2°42.819 266.2 12.4 264 9.3
2009-07-27 10:55:15 51°10.625 2°42.494 264.5 12.4 262 9.8
2009-07-27 10:56:15 51°10.594 2°42.168 264.7 12.5 262 10.2
2009-07-27 10:57:14 51°10.562 2°41.847 264.5 12.5 261 10.6
2009-07-27 10:58:14 51°10.533 2°41.521 264.1 12.4 262 10.9
2009-07-27 10:59:15 51°10.501 2°41.188 264.2 12.6 262 11.1
2009-07-27 11:00:15 51°10.471 2°40.86 264.5 12.6 262 11.3
2009-07-27 11:01:15 51°10.439 2°40.532 264.3 12.5 261 11.6
2009-07-27 11:02:15 51°10.408 2°40.204 264.3 12.5 261 12.1
2009-07-27 11:03:15 51°10.377 2°39.885 264 10.3 261 12.6
2009-07-27 11:04:15 51°10.359 2°39.693 265.2 5.8 255 13
2009-07-27 11:05:15 51°10.305 2°39.609 188.4 3.9 198 13.1
2009-07-27 11:06:15 51°10.243 2°39.59 180.2 3.9 194 12.9
2009-07-27 11:07:15 51°10.186 2°39.545 212.3 3.9 218 12.7
2009-07-27 11:08:14 51°10.14 2°39.478 224.3 3.7 226 12.5
2009-07-27 11:09:15 51°10.1 2°39.405 231.6 3.5 233 12.3
2009-07-27 11:10:15 51°10.066 2°39.331 236.3 3.4 234 12.3
2009-07-27 11:11:15 51°10.033 2°39.26 237.4 3.3 235 12.2
2009-07-27 11:12:14 51°10.004 2°39.186 244.5 3.4 240 12.2
2009-07-27 11:13:15 51°9.976 2°39.107 247.9 3.4 243 12.2
2009-07-27 11:14:15 51°9.951 2°39.025 247.1 3.5 243 12.2
2009-07-27 11:15:15 51°9.923 2°38.945 244.8 3.4 241 12.2
2009-07-27 11:16:15 51°9.896 2°38.864 248.2 3.4 244 12.1
2009-07-27 11:17:14 51°9.873 2°38.783 252.8 3.4 248 12.2
2009-07-27 11:18:15 51°9.85 2°38.698 252.8 3.4 246 12.3
2009-07-27 11:19:15 51°9.829 2°38.615 254.8 3.4 249 12.3
2009-07-27 11:20:15 51°9.809 2°38.531 255 3.4 249 12.4
2009-07-27 11:21:15 51°9.787 2°38.45 251.2 3.4 245 12.6
2009-07-27 11:22:15 51°9.766 2°38.367 255.3 3.4 250 12.5
2009-07-27 11:23:15 51°9.746 2°38.284 255.6 3.4 250 12.8
2009-07-27 11:24:15 51°9.726 2°38.201 252.1 3.4 247 12.9
2009-07-27 11:25:15 51°9.703 2°38.119 250.2 3.4 246 12.9
2009-07-27 11:26:15 51°9.679 2°38.037 249.2 3.4 245 12.8
2009-07-27 11:27:15 51°9.656 2°37.955 250.8 3.4 247 12.9
2009-07-27 11:28:15 51°9.633 2°37.872 249.6 3.4 246 13
2009-07-27 11:29:15 51°9.608 2°37.789 247.5 3.5 244 13
2009-07-27 11:30:15 51°9.584 2°37.706 249.6 3.4 247 13.1
2009-07-27 11:31:15 51°9.56 2°37.624 249.3 3.5 247 13.1
2009-07-27 11:32:15 51°9.535 2°37.54 250 3.5 246 13.2
2009-07-27 11:33:15 51°9.512 2°37.456 249 3.5 246 13.3
2009-07-27 11:34:15 51°9.488 2°37.371 248.2 3.5 245 13.4
2009-07-27 11:35:15 51°9.463 2°37.288 249 3.5 245 13.4
2009-07-27 11:36:15 51°9.439 2°37.203 249.1 3.6 245 13.6
2009-07-27 11:37:15 51°9.415 2°37.118 248.3 3.5 245 13.7
2009-07-27 11:38:15 51°9.391 2°37.031 249.9 3.6 246 13.8
2009-07-27 11:39:15 51°9.367 2°36.944 250.4 3.6 246 14.1
2009-07-27 11:40:15 51°9.343 2°36.857 249.1 3.6 245 14.2
2009-07-27 11:41:15 51°9.319 2°36.771 250.2 3.6 248 14.4
2009-07-27 11:42:15 51°9.304 2°36.681 271.9 3.4 264 14.7
2009-07-27 11:43:15 51°9.309 2°36.594 299.9 3.2 284 15.1
2009-07-27 11:44:15 51°9.331 2°36.518 321.2 3.1 303 15.1
2009-07-27 11:45:15 51°9.37 2°36.481 18 2.6 4 15.4
2009-07-27 11:46:15 51°9.393 2°36.51 65.4 1.2 67 15.4
2009-07-27 11:47:15 51°9.397 2°36.531 65.2 0.6 75 15.5
2009-07-27 11:48:15 51°9.399 2°36.542 58 0.3 57 15.4
2009-07-27 11:49:15 51°9.402 2°36.543 46.9 0.2 348 15.5
2009-07-27 11:50:15 51°9.41 2°36.555 57.6 1.7 60 15.5
2009-07-27 11:51:15 51°9.44 2°36.676 68.3 7.4 69 15.5
2009-07-27 11:52:15 51°9.496 2°36.901 70.6 10.1 72 15.5
2009-07-27 11:53:15 51°9.552 2°37.159 71.2 10.4 70 15
2009-07-27 11:54:15 51°9.605 2°37.423 72.7 10.5 73 14.8
2009-07-27 11:55:15 51°9.659 2°37.688 71.9 10.5 72 14.2
2009-07-27 11:56:15 51°9.716 2°37.951 69.2 10.4 69 13.9
2009-07-27 11:57:15 51°9.782 2°38.208 68.8 10.5 69 13.6
2009-07-27 11:58:15 51°9.847 2°38.467 68.7 10.5 69 13.3
2009-07-27 11:59:15 51°9.911 2°38.728 68.3 10.6 68 13.1
2009-07-27 12:00:15 51°9.975 2°38.989 68.3 10.6 68 12.9
2009-07-27 12:01:15 51°10.04 2°39.249 68.2 10.6 69 12.7
2009-07-27 12:02:15 51°10.104 2°39.51 69 10.6 68 12.4
2009-07-27 12:03:15 51°10.162 2°39.776 70.5 10.6 71 12.3
2009-07-27 12:04:15 51°10.222 2°40.04 70.5 10.6 70 12.1
2009-07-27 12:05:15 51°10.278 2°40.305 70.4 10.6 71 11.9
2009-07-27 12:06:15 51°10.336 2°40.571 70.4 10.6 71 11.8
2009-07-27 12:07:15 51°10.395 2°40.835 69.8 10.6 70 11.7
2009-07-27 12:08:15 51°10.453 2°41.1 70.3 10.6 71 11.6
2009-07-27 12:09:15 51°10.511 2°41.366 70.1 10.6 71 11.6
2009-07-27 12:10:15 51°10.569 2°41.633 70.3 10.6 71 11.6
2009-07-27 12:11:15 51°10.627 2°41.9 70.5 10.7 71 11.6
2009-07-27 12:12:15 51°10.686 2°42.168 70.1 10.7 71 11.6
2009-07-27 12:13:15 51°10.745 2°42.436 70.8 10.7 71 11.5
2009-07-27 12:14:15 51°10.805 2°42.701 70.5 10.7 71 11.5
2009-07-27 12:15:15 51°10.863 2°42.968 68.8 10.6 71 11.4
2009-07-27 12:16:14 51°10.921 2°43.23 70.4 10.7 71 11.6
2009-07-27 12:17:15 51°10.98 2°43.501 69.9 10.6 70 11.5
2009-07-27 12:18:14 51°11.04 2°43.76 69.5 10.7 70 11.7
2009-07-27 12:19:14 51°11.098 2°44.027 70.5 10.7 71 11.7
2009-07-27 12:20:14 51°11.157 2°44.293 70.2 10.7 71 11.6
2009-07-27 12:21:14 51°11.217 2°44.557 70.5 10.7 69 11.6
2009-07-27 12:22:14 51°11.275 2°44.823 71.3 10.7 72 11.7
2009-07-27 12:23:14 51°11.334 2°45.089 69.8 10.7 71 11.8
2009-07-27 12:24:14 51°11.392 2°45.356 70.8 10.7 72 11.7
2009-07-27 12:25:15 51°11.448 2°45.628 71.2 10.7 71 11.7
2009-07-27 12:26:14 51°11.51 2°45.889 66.9 10.7 67 11.6
2009-07-27 12:27:14 51°11.577 2°46.152 68.3 10.8 68 11.7
2009-07-27 12:28:14 51°11.643 2°46.416 67.9 10.8 68 11.6
2009-07-27 12:29:15 51°11.714 2°46.682 66.1 10.7 65 11.4
2009-07-27 12:30:15 51°11.789 2°46.941 65.7 10.8 66 11.3
2009-07-27 12:31:15 51°11.865 2°47.2 65.2 10.8 67 11.3
2009-07-27 12:32:14 51°11.94 2°47.455 65.3 10.7 65 11.3
2009-07-27 12:33:14 51°12.015 2°47.714 64.6 10.7 65 11.3
2009-07-27 12:34:15 51°12.093 2°47.978 65.2 10.8 64 11.1
2009-07-27 12:35:14 51°12.167 2°48.236 65.9 10.9 65 10.9
2009-07-27 12:36:14 51°12.244 2°48.498 65.3 11 64 11
2009-07-27 12:37:14 51°12.32 2°48.763 65.7 11 65 10.8
2009-07-27 12:38:14 51°12.396 2°49.027 65.4 10.9 64 10.7
2009-07-27 12:39:14 51°12.473 2°49.289 65.1 11 64 10.6
2009-07-27 12:40:14 51°12.552 2°49.55 64 10.8 62 10.5
2009-07-27 12:41:14 51°12.638 2°49.806 62.6 10.9 64 10.4
2009-07-27 12:42:14 51°12.724 2°50.061 63.4 11 62 10.3
2009-07-27 12:43:14 51°12.806 2°50.319 63.6 10.9 62 10.3
2009-07-27 12:44:14 51°12.893 2°50.571 60.3 10.9 59 10.3
2009-07-27 12:45:14 51°12.984 2°50.82 60.1 10.9 60 10.4
2009-07-27 12:46:14 51°13.072 2°51.07 62.7 10.9 60 10.2
2009-07-27 12:47:15 51°13.156 2°51.329 62.9 10.8 63 10.1
2009-07-27 12:48:15 51°13.237 2°51.584 64.2 10.9 63 10.1
2009-07-27 12:49:14 51°13.319 2°51.834 61.3 10.9 62 10
2009-07-27 12:50:14 51°13.409 2°52.083 61.1 10.9 61 10.1
2009-07-27 12:51:14 51°13.5 2°52.332 60.5 10.9 60 9.9
2009-07-27 12:52:14 51°13.593 2°52.58 58.7 10.9 58 9.9
2009-07-27 12:53:14 51°13.691 2°52.82 57.7 10.8 56 9.7
2009-07-27 12:54:14 51°13.791 2°53.059 56.8 10.9 58 9.7
2009-07-27 12:55:14 51°13.893 2°53.298 57.3 10.9 56 9.5
2009-07-27 12:56:14 51°13.992 2°53.541 58.2 10.9 57 9.4
2009-07-27 12:57:14 51°14.085 2°53.789 61.1 11 59 9.3
2009-07-27 12:58:14 51°14.167 2°54.05 66.3 10.9 67 9.2
2009-07-27 12:59:14 51°14.241 2°54.315 65.7 10.9 64 9.2
2009-07-27 13:00:14 51°14.32 2°54.578 65.1 11 64 9.2
2009-07-27 13:01:14 51°14.358 2°54.861 88.6 11.1 91 8.7
2009-07-27 13:02:15 51°14.314 2°55.15 117.9 11.2 118 11
2009-07-27 13:03:15 51°14.197 2°55.346 141.8 9.5 144 11.4
2009-07-27 13:04:15 51°14.066 2°55.453 155.8 8.7 155 11.4
2009-07-27 13:05:15 51°13.938 2°55.544 157.3 7.5 156 11.5
2009-07-27 13:06:15 51°13.834 2°55.621 155.4 6.6 154 11.1
2009-07-27 13:07:14 51°13.754 2°55.718 134.1 5.6 132 11.7
2009-07-27 13:08:14 51°13.7 2°55.824 126.1 4.7 124 9.4
2009-07-27 13:09:14 51°13.67 2°55.919 108.2 3.1 109 7.9
2009-07-27 13:10:14 51°13.662 2°55.954 119.1 0.4 123 6.5